Time;durP1;ratioP1;P1;durP2;ratioP2;P2;SDS_P1;SDS_P2;PMS_P1;PMS_P2;Temp;Humidity;BMP_temperature;BMP_pressure;BME280_temperature;BME280_humidity;BME280_pressure;Samples;Min_cycle;Max_cycle;Signal;HPM_P1;HPM_P2
2022/03/14 00:03:57;;;;;;;3.63;1.93;;;9.10;99.90;;;;;;20773783;28;20029;-79
2022/03/14 00:14:01;;;;;;;2.70;1.60;;;8.90;99.90;;;;;;20765235;28;20080;-77
2022/03/14 00:24:02;;;;;;;2.55;1.30;;;8.80;99.90;;;;;;20756344;28;20032;-77
2022/03/14 00:34:03;;;;;;;4.87;1.63;;;8.70;99.90;;;;;;20755059;28;20087;-77
2022/03/14 00:44:05;;;;;;;1.98;1.20;;;8.50;99.90;;;;;;20753101;28;20036;-77
2022/03/14 00:54:06;;;;;;;2.10;1.23;;;8.50;99.90;;;;;;20752608;28;20164;-78
2022/03/14 01:04:08;;;;;;;2.88;1.23;;;8.40;99.90;;;;;;20751384;28;20036;-79
2022/03/14 01:14:10;;;;;;;1.67;1.20;;;8.20;99.90;;;;;;20752916;28;20041;-78
2022/03/14 01:24:11;;;;;;;1.98;0.82;;;8.10;99.90;;;;;;20766327;28;20120;-78
2022/03/14 01:34:11;;;;;;;0.47;0.47;;;8.00;99.90;;;;;;20764021;28;20038;-78
2022/03/14 01:44:12;;;;;;;1.73;0.50;;;7.80;99.90;;;;;;20760629;28;20029;-77
2022/03/14 01:54:13;;;;;;;0.60;0.60;;;7.70;99.90;;;;;;20748386;28;20129;-77
2022/03/14 02:04:15;;;;;;;1.20;0.60;;;7.50;99.90;;;;;;20747588;28;20156;-77
2022/03/14 02:14:16;;;;;;;2.38;0.90;;;7.30;99.90;;;;;;20746876;28;20048;-77
2022/03/14 02:24:17;;;;;;;1.67;0.93;;;7.20;99.90;;;;;;20746642;28;20034;-77
2022/03/14 02:34:18;;;;;;;1.77;0.90;;;7.10;99.90;;;;;;20745844;28;20036;-77
2022/03/14 02:44:19;;;;;;;1.67;0.90;;;7.10;99.90;;;;;;20745929;28;20033;-78
2022/03/14 02:54:20;;;;;;;1.10;0.90;;;7.00;99.90;;;;;;20774381;23;20419;-75
2022/03/14 03:04:21;;;;;;;0.80;0.50;;;7.00;99.90;;;;;;20825292;28;20026;-75
2022/03/14 03:14:21;;;;;;;0.73;0.57;;;7.00;99.90;;;;;;20825234;28;20396;-76
2022/03/14 03:24:22;;;;;;;0.87;0.57;;;6.80;99.90;;;;;;20840227;28;20036;-75
2022/03/14 03:34:23;;;;;;;0.50;0.30;;;6.80;99.90;;;;;;20841179;28;20036;-74
2022/03/14 03:44:26;;;;;;;0.20;0.20;;;6.70;99.90;;;;;;20840434;28;20487;-74
2022/03/14 03:54:27;;;;;;;0.32;0.20;;;6.60;99.90;;;;;;20842643;28;20033;-75
2022/03/14 04:04:28;;;;;;;0.20;0.20;;;6.60;99.90;;;;;;20821611;28;20091;-75
2022/03/14 04:14:29;;;;;;;3.13;0.30;;;6.60;99.90;;;;;;20838070;28;20028;-75
2022/03/14 04:24:30;;;;;;;0.67;0.30;;;6.50;99.90;;;;;;20837404;28;20276;-75
2022/03/14 04:34:32;;;;;;;0.80;0.43;;;6.30;99.90;;;;;;20836429;28;20029;-75
2022/03/14 04:44:34;;;;;;;1.30;0.40;;;6.30;99.90;;;;;;20835985;28;20033;-72
2022/03/14 04:54:35;;;;;;;1.48;0.60;;;6.10;99.90;;;;;;20834972;28;20048;-73
2022/03/14 05:04:37;;;;;;;1.07;0.50;;;5.90;99.90;;;;;;20835841;28;20472;-73
2022/03/14 05:14:39;;;;;;;3.72;0.65;;;5.80;99.90;;;;;;20833853;28;20038;-73
2022/03/14 05:24:40;;;;;;;1.08;0.40;;;5.80;99.90;;;;;;20833242;28;20029;-74
2022/03/14 05:34:41;;;;;;;1.03;0.60;;;5.60;99.90;;;;;;20831855;28;20033;-74
2022/03/14 05:44:45;;;;;;;3.33;0.67;;;5.00;99.90;;;;;;20831916;28;20034;-73
2022/03/14 05:54:47;;;;;;;2.10;0.65;;;4.40;99.90;;;;;;20823903;28;20449;-73
2022/03/14 06:04:51;;;;;;;;;;;4.30;99.90;;;;;;20746484;28;20515;-73
2022/03/14 06:14:54;;;;;;;1.27;0.75;;;4.40;99.90;;;;;;20747750;28;19913;-73
2022/03/14 06:24:55;;;;;;;3.08;0.95;;;4.20;99.90;;;;;;20749728;28;20519;-76
2022/03/14 06:34:55;;;;;;;1.58;0.70;;;4.70;99.90;;;;;;20729228;28;20061;-76
2022/03/14 06:45:01;;;;;;;2.20;1.00;;;5.90;99.90;;;;;;20754421;28;20499;-76
2022/03/14 06:55:04;;;;;;;1.75;0.90;;;6.80;99.90;;;;;;20745162;28;20033;-75
2022/03/14 07:05:06;;;;;;;1.10;0.52;;;8.00;99.90;;;;;;20727211;28;20042;-75
2022/03/14 07:15:07;;;;;;;2.15;0.60;;;9.10;99.90;;;;;;20744771;28;20049;-75
2022/03/14 07:25:08;;;;;;;0.97;0.50;;;9.60;99.90;;;;;;20726073;28;20092;-76
2022/03/14 07:35:10;;;;;;;3.87;1.07;;;10.20;99.90;;;;;;20743757;28;20030;-76
2022/03/14 07:45:12;;;;;;;2.50;1.20;;;10.20;99.90;;;;;;20667216;28;20041;-76
2022/03/14 07:55:14;;;;;;;1.98;0.90;;;10.60;99.90;;;;;;20665917;28;20030;-76
2022/03/14 08:05:16;;;;;;;1.83;0.80;;;10.40;99.90;;;;;;20667296;28;20038;-76
2022/03/14 08:15:31;;;;;;;3.35;0.80;;;10.70;99.90;;;;;;20659665;28;20445;-76
2022/03/14 08:25:34;;;;;;;3.17;0.70;;;11.10;99.90;;;;;;20675633;28;20033;-76
2022/03/14 08:35:35;;;;;;;3.17;0.80;;;11.20;99.90;;;;;;20680884;28;20100;-76
2022/03/14 08:45:36;;;;;;;5.93;0.97;;;11.00;99.90;;;;;;20674655;28;20121;-75
2022/03/14 08:55:37;;;;;;;5.50;1.00;;;11.80;99.90;;;;;;20721741;23;20046;-75
2022/03/14 09:05:38;;;;;;;2.53;0.60;;;11.50;99.90;;;;;;20823285;28;20036;-75
2022/03/14 09:15:39;;;;;;;3.67;0.80;;;11.70;99.90;;;;;;20757306;28;20045;-75
2022/03/14 09:25:39;;;;;;;3.63;0.87;;;11.80;99.90;;;;;;20769753;28;20037;-75
2022/03/14 09:35:40;;;;;;;4.47;0.80;;;11.90;99.90;;;;;;20787462;28;20113;-75
2022/03/14 09:45:47;;;;;;;8.20;0.80;;;12.20;99.90;;;;;;20730149;28;20030;-75
2022/03/14 09:55:48;;;;;;;3.60;0.57;;;11.90;99.90;;;;;;20727799;28;20034;-75
2022/03/14 10:05:49;;;;;;;3.03;0.80;;;12.40;99.90;;;;;;20722730;28;20377;-75
2022/03/14 10:15:51;;;;;;;2.70;0.83;;;12.20;99.90;;;;;;20727464;28;20117;-76
2022/03/14 10:25:56;;;;;;;8.82;2.63;;;13.00;99.90;;;;;;20726425;28;20124;-76
2022/03/14 10:35:58;;;;;;;1.50;0.68;;;13.10;99.90;;;;;;20726006;28;20030;-76
2022/03/14 10:46:00;;;;;;;4.35;0.90;;;13.30;99.90;;;;;;20722004;28;20133;-76
2022/03/14 10:56:02;;;;;;;2.85;1.10;;;13.60;99.90;;;;;;20648449;28;20100;-76
2022/03/14 11:06:05;;;;;;;4.60;1.53;;;14.00;99.90;;;;;;20669969;28;20112;-76
2022/03/14 11:16:29;;;;;;;3.72;0.73;;;14.00;99.90;;;;;;20723914;28;20080;-76
2022/03/14 11:26:31;;;;;;;1.48;0.80;;;14.40;99.90;;;;;;20723749;28;20123;-75
2022/03/14 11:36:32;;;;;;;4.22;1.77;;;13.90;99.90;;;;;;20722698;28;20048;-75
2022/03/14 11:46:35;;;;;;;3.73;1.00;;;14.10;99.90;;;;;;20739324;28;20484;-76
2022/03/14 11:56:38;;;;;;;3.13;0.80;;;14.60;99.90;;;;;;20717343;28;20061;-75
2022/03/14 12:06:49;;;;;;;5.22;0.90;;;14.40;99.90;;;;;;20780795;28;20238;-75
2022/03/14 12:16:50;;;;;;;3.03;0.77;;;14.40;99.90;;;;;;20743815;28;20041;-75
2022/03/14 12:26:59;;;;;;;9.57;0.97;;;14.40;99.90;;;;;;20736277;28;20112;-75
2022/03/14 12:37:00;;;;;;;3.25;0.70;;;14.60;99.90;;;;;;20763022;28;20092;-75
2022/03/14 12:47:03;;;;;;;6.20;0.70;;;14.60;99.90;;;;;;20809765;28;20029;-75
2022/03/14 12:57:05;;;;;;;2.63;0.85;;;16.00;99.90;;;;;;20754753;28;20066;-75
2022/03/14 13:07:06;;;;;;;3.10;0.73;;;16.70;99.90;;;;;;20754580;28;20033;-75
2022/03/14 13:17:07;;;;;;;4.03;0.63;;;16.30;99.90;;;;;;20754828;28;20519;-75
2022/03/14 13:27:09;;;;;;;3.10;0.70;;;16.10;99.90;;;;;;20751666;28;20125;-75
2022/03/14 13:37:10;;;;;;;;;;;15.80;99.90;;;;;;20750553;28;20223;-75
2022/03/14 13:47:12;;;;;;;3.13;0.75;;;15.80;99.90;;;;;;20749143;28;19917;-75
2022/03/14 13:57:16;;;;;;;;;;;15.50;99.90;;;;;;20748687;28;20461;-75
2022/03/14 14:07:21;;;;;;;2.63;0.70;;;16.00;99.70;;;;;;20747279;28;19975;-75
2022/03/14 14:17:32;;;;;;;1.52;0.63;;;16.30;99.50;;;;;;20757464;28;20565;-75
2022/03/14 14:27:33;;;;;;;1.45;0.70;;;17.10;98.30;;;;;;20746348;28;20515;-74
2022/03/14 14:37:35;;;;;;;3.97;0.50;;;17.20;97.30;;;;;;20746091;28;20556;-74
2022/03/14 14:47:36;;;;;;;0.67;0.47;;;17.00;96.10;;;;;;20745150;28;20065;-75
2022/03/14 14:57:37;;;;;;;3.10;0.60;;;17.30;95.70;;;;;;20786675;23;20045;-77
2022/03/14 15:07:40;;;;;;;3.17;0.60;;;17.30;94.50;;;;;;20824578;28;20050;-77
2022/03/14 15:17:41;;;;;;;3.97;0.80;;;17.60;95.20;;;;;;20806234;28;20041;-77
2022/03/14 15:27:42;;;;;;;3.37;0.53;;;17.00;93.50;;;;;;20830718;28;20033;-78
2022/03/14 15:37:44;;;;;;;1.50;0.43;;;18.40;91.40;;;;;;20825358;28;20083;-77
2022/03/14 15:47:45;;;;;;;2.58;0.60;;;17.70;91.00;;;;;;20805966;28;20029;-77
2022/03/14 15:57:46;;;;;;;4.77;0.83;;;17.10;90.90;;;;;;20749629;28;20116;-77
2022/03/14 16:07:47;;;;;;;3.97;0.60;;;16.20;92.40;;;;;;20741485;28;20084;-77
2022/03/14 16:17:48;;;;;;;0.77;0.57;;;15.40;92.70;;;;;;20741109;28;20120;-76
2022/03/14 16:27:53;;;;;;;3.07;0.70;;;15.20;95.20;;;;;;20748431;28;20041;-76
2022/03/14 16:37:55;;;;;;;2.83;0.55;;;14.70;95.40;;;;;;20754592;28;20045;-77
2022/03/14 16:47:56;;;;;;;4.70;0.55;;;14.70;97.00;;;;;;20755493;28;20021;-77
2022/03/14 16:57:57;;;;;;;1.73;0.70;;;14.00;99.30;;;;;;20759085;28;20034;-78
2022/03/14 17:07:58;;;;;;;1.30;0.50;;;13.40;99.90;;;;;;20759145;28;20116;-78
2022/03/14 17:18:00;;;;;;;1.23;0.80;;;13.00;99.90;;;;;;20741084;28;20553;-77
2022/03/14 17:28:04;;;;;;;2.22;0.68;;;12.10;99.90;;;;;;20750668;28;20084;-76
2022/03/14 17:38:08;;;;;;;3.10;0.95;;;11.30;99.90;;;;;;20815013;28;20025;-77
2022/03/14 17:48:09;;;;;;;3.90;1.07;;;10.90;99.90;;;;;;20812035;28;20439;-77
2022/03/14 17:58:11;;;;;;;8.18;1.15;;;10.60;99.90;;;;;;20751682;28;20040;-77
2022/03/14 18:08:12;;;;;;;7.87;1.47;;;10.80;99.90;;;;;;20747425;28;20026;-76
2022/03/14 18:18:13;;;;;;;6.30;1.20;;;10.50;99.90;;;;;;20747166;28;20288;-77
2022/03/14 18:28:17;;;;;;;4.60;1.25;;;10.30;99.90;;;;;;20744799;28;20033;-76
2022/03/14 18:38:18;;;;;;;4.43;2.47;;;10.00;99.90;;;;;;20744402;28;20630;-76
2022/03/14 18:48:19;;;;;;;8.30;2.43;;;9.90;99.90;;;;;;20744658;28;20064;-76
2022/03/14 18:58:20;;;;;;;5.33;1.80;;;9.70;99.90;;;;;;20744144;28;20407;-76
2022/03/14 19:08:23;;;;;;;7.37;2.00;;;9.30;99.90;;;;;;20743826;28;20511;-77
2022/03/14 19:18:24;;;;;;;8.60;1.73;;;9.30;99.90;;;;;;20743582;28;20044;-77
2022/03/14 19:28:27;;;;;;;4.07;1.40;;;9.10;99.90;;;;;;20742898;28;20026;-76
2022/03/14 19:38:28;;;;;;;4.47;2.55;;;9.10;99.90;;;;;;20742517;28;20033;-77
2022/03/14 19:48:29;;;;;;;6.17;3.17;;;9.10;99.90;;;;;;20726011;28;20172;-76
2022/03/14 19:58:30;;;;;;;6.47;1.83;;;8.90;99.90;;;;;;20731932;28;20088;-76
2022/03/14 20:08:32;;;;;;;6.43;2.20;;;8.40;99.90;;;;;;20773649;28;20033;-77
2022/03/14 20:18:33;;;;;;;5.50;2.13;;;8.00;99.90;;;;;;20766453;28;20041;-75
2022/03/14 20:28:34;;;;;;;4.20;2.03;;;7.60;99.90;;;;;;20755265;28;20045;-76
2022/03/14 20:38:36;;;;;;;2.73;1.57;;;7.50;99.90;;;;;;20754621;28;20034;-76
2022/03/14 20:48:39;;;;;;;4.90;1.67;;;7.60;99.90;;;;;;20753350;28;20052;-75
2022/03/14 20:58:42;;;;;;;4.35;2.00;;;7.50;99.90;;;;;;20797380;22;20046;-74
2022/03/14 21:08:45;;;;;;;9.15;3.08;;;7.50;99.90;;;;;;20828045;28;20045;-73
2022/03/14 21:18:48;;;;;;;9.02;2.90;;;7.50;99.90;;;;;;20832545;28;20037;-72
2022/03/14 21:28:49;;;;;;;5.20;2.70;;;6.60;99.90;;;;;;20832368;28;20038;-72
2022/03/14 21:38:52;;;;;;;5.40;1.95;;;6.60;99.90;;;;;;20832145;28;20484;-72
2022/03/14 21:48:54;;;;;;;6.53;2.17;;;6.50;99.90;;;;;;20813951;28;20056;-72
2022/03/14 21:58:55;;;;;;;3.78;2.10;;;6.00;99.90;;;;;;20773197;28;20033;-72
2022/03/14 22:08:56;;;;;;;5.30;3.10;;;5.90;99.90;;;;;;20697006;28;20038;-71
2022/03/14 22:18:58;;;;;;;6.77;2.90;;;5.80;99.90;;;;;;20701615;28;20454;-73
2022/03/14 22:28:59;;;;;;;4.57;2.50;;;5.80;99.90;;;;;;20707425;28;20520;-73
2022/03/14 22:39:01;;;;;;;8.07;2.73;;;5.90;99.90;;;;;;20685137;28;20038;-73
2022/03/14 22:49:04;;;;;;;7.63;2.80;;;5.80;99.90;;;;;;20770261;28;20088;-74
2022/03/14 22:59:04;;;;;;;5.88;2.60;;;6.00;99.90;;;;;;20780906;28;20523;-74
2022/03/14 23:09:05;;;;;;;5.27;3.00;;;6.00;99.90;;;;;;20688204;28;20034;-74
2022/03/14 23:19:12;;;;;;;5.95;2.97;;;6.00;99.90;;;;;;20687713;28;20061;-74
2022/03/14 23:29:15;;;;;;;4.35;2.30;;;5.80;99.90;;;;;;20686626;28;20034;-73
2022/03/14 23:39:16;;;;;;;6.32;2.63;;;6.00;99.90;;;;;;20703952;28;20524;-74
2022/03/14 23:49:17;;;;;;;6.65;2.63;;;6.00;99.90;;;;;;20682424;28;20037;-74
2022/03/14 23:59:19;;;;;;;7.70;3.00;;;6.10;99.90;;;;;;20677004;28;20489;-73
